createdAt,value
2023-05-06T00:04:10.305Z,48.73
2023-05-06T00:06:37.490Z,48.13
2023-05-06T00:09:04.853Z,48.05
2023-05-06T00:11:31.790Z,47.48
2023-05-06T00:13:58.994Z,47.55
2023-05-06T00:16:26.456Z,47.19
2023-05-06T00:18:53.495Z,47.27
2023-05-06T00:21:20.731Z,47.21
2023-05-06T00:23:49.857Z,47.12
2023-05-06T00:26:16.996Z,47.11
2023-05-06T00:28:44.272Z,46.82
2023-05-06T00:31:14.897Z,46.92
2023-05-06T00:33:42.327Z,47.25
2023-05-06T00:36:09.430Z,46.95
2023-05-06T00:38:36.448Z,46.81
2023-05-06T00:41:03.923Z,46.83
2023-05-06T00:43:30.993Z,46.56
2023-05-06T00:45:58.219Z,46.45
2023-05-06T00:48:25.178Z,46.86
2023-05-06T00:50:52.639Z,46.56
2023-05-06T00:53:26.425Z,46.42
2023-05-06T00:55:53.843Z,46.49
2023-05-06T00:58:20.979Z,46.33
2023-05-06T01:00:51.723Z,46.04
2023-05-06T01:03:18.987Z,46.07
2023-05-06T01:06:16.713Z,46.02
2023-05-06T01:09:11.254Z,46.34
2023-05-06T01:11:43.978Z,45.84
2023-05-06T01:14:35.273Z,45.86
2023-05-06T01:17:10.948Z,45.81
2023-05-06T01:19:49.264Z,45.51
2023-05-06T01:22:18.176Z,45.16
2023-05-06T01:24:46.728Z,45.11
2023-05-06T01:27:16.318Z,44.84
2023-05-06T01:29:45.359Z,44.79
2023-05-06T01:32:18.457Z,44.34
2023-05-06T01:35:02.091Z,44.06
2023-05-06T01:37:44.960Z,43.98
2023-05-06T01:40:16.508Z,43.42
2023-05-06T01:42:48.870Z,43.29
2023-05-06T01:45:19.560Z,43.27
2023-05-06T01:47:47.376Z,43.20
2023-05-06T01:50:15.317Z,42.57
2023-05-06T01:52:42.233Z,42.44
2023-05-06T01:55:09.628Z,42.16
2023-05-06T01:57:37.010Z,42.30
2023-05-06T02:00:04.631Z,41.66
2023-05-06T02:02:31.663Z,41.51
2023-05-06T02:04:58.525Z,41.12
2023-05-06T02:07:25.576Z,41.20
2023-05-06T02:09:52.773Z,40.82
2023-05-06T02:12:19.929Z,40.50
2023-05-06T02:14:46.978Z,40.60
2023-05-06T02:17:14.539Z,40.57
2023-05-06T02:19:41.812Z,40.44
2023-05-06T02:22:08.793Z,40.39
2023-05-06T02:24:36.048Z,40.34
2023-05-06T02:27:03.867Z,40.07
2023-05-06T02:29:31.023Z,39.99
2023-05-06T02:31:58.333Z,39.64
2023-05-06T02:34:25.607Z,39.86
2023-05-06T02:36:52.621Z,39.60
2023-05-06T02:39:19.865Z,39.58
2023-05-06T02:41:46.884Z,39.76
2023-05-06T02:44:13.593Z,39.64
2023-05-06T02:46:40.648Z,39.40
2023-05-06T02:49:07.697Z,39.71
2023-05-06T02:51:35.001Z,39.05
2023-05-06T02:54:02.399Z,39.48
2023-05-06T02:56:29.610Z,38.99
2023-05-06T02:58:56.573Z,39.06
2023-05-06T03:01:23.844Z,38.85
2023-05-06T03:03:53.878Z,38.72
2023-05-06T03:06:20.820Z,38.90
2023-05-06T03:08:47.887Z,38.88
2023-05-06T03:11:17.810Z,38.61
2023-05-06T03:13:45.425Z,38.58
2023-05-06T03:16:15.440Z,38.64
2023-05-06T03:18:42.628Z,38.45
2023-05-06T03:21:10.615Z,38.55
2023-05-06T03:23:37.936Z,38.13
2023-05-06T03:26:04.956Z,38.08
2023-05-06T03:28:32.082Z,38.42
2023-05-06T03:30:59.530Z,38.41
2023-05-06T03:33:26.606Z,38.03
2023-05-06T03:35:53.792Z,37.89
2023-05-06T03:38:21.132Z,37.95
2023-05-06T03:40:48.323Z,37.65
2023-05-06T03:43:16.710Z,37.81
2023-05-06T03:45:43.827Z,38.00
2023-05-06T03:48:11.027Z,37.68
2023-05-06T03:50:38.731Z,37.67
2023-05-06T03:53:05.970Z,37.72
2023-05-06T03:55:33.388Z,37.88
2023-05-06T03:58:01.506Z,37.79
2023-05-06T04:00:28.553Z,37.91
2023-05-06T04:02:55.769Z,38.04
2023-05-06T04:05:23.009Z,37.78
2023-05-06T04:07:50.176Z,37.47
2023-05-06T04:10:17.376Z,37.72
2023-05-06T04:12:44.599Z,37.45
2023-05-06T04:15:12.058Z,37.63
2023-05-06T04:17:39.439Z,37.44
2023-05-06T04:20:07.373Z,37.44
2023-05-06T04:22:34.512Z,37.33
2023-05-06T04:25:01.505Z,37.26
2023-05-06T04:27:29.590Z,36.98
2023-05-06T04:29:56.751Z,37.29
2023-05-06T04:32:24.846Z,37.52
2023-05-06T04:34:56.654Z,37.24
2023-05-06T04:37:23.853Z,37.33
2023-05-06T04:39:51.237Z,37.31
2023-05-06T04:42:18.274Z,37.08
2023-05-06T04:44:45.436Z,37.16
2023-05-06T04:47:12.546Z,37.32
2023-05-06T04:49:39.724Z,36.92
2023-05-06T04:52:06.922Z,37.00
2023-05-06T04:54:33.877Z,37.02
2023-05-06T04:57:02.017Z,37.31
2023-05-06T04:59:29.130Z,37.06
2023-05-06T05:01:56.162Z,36.73
2023-05-06T05:04:23.559Z,36.88
2023-05-06T05:06:50.666Z,37.30
2023-05-06T05:09:18.177Z,37.29
2023-05-06T05:11:45.335Z,37.26
2023-05-06T05:14:12.385Z,37.19
2023-05-06T05:16:39.600Z,36.93
2023-05-06T05:19:09.060Z,37.08
2023-05-06T05:21:36.709Z,37.01
2023-05-06T05:24:04.190Z,37.30
2023-05-06T05:26:31.312Z,37.09
2023-05-06T05:28:58.446Z,37.28
2023-05-06T05:31:25.834Z,37.36
2023-05-06T05:33:52.765Z,37.33
2023-05-06T05:36:20.660Z,37.29
2023-05-06T05:38:47.841Z,37.39
2023-05-06T05:41:17.289Z,37.41
2023-05-06T05:43:44.693Z,37.46
2023-05-06T05:46:14.108Z,37.50
2023-05-06T05:48:41.817Z,37.47
2023-05-06T05:51:11.024Z,37.53
2023-05-06T05:53:39.403Z,37.51
2023-05-06T05:56:06.960Z,37.80
2023-05-06T05:58:34.482Z,37.51
2023-05-06T06:01:01.709Z,37.74
2023-05-06T06:03:29.177Z,37.75
2023-05-06T06:05:59.437Z,37.48
2023-05-06T06:08:26.769Z,37.41
2023-05-06T06:10:54.203Z,37.65
2023-05-06T06:13:21.633Z,37.80
2023-05-06T06:15:55.655Z,38.05
2023-05-06T06:18:23.064Z,38.30
2023-05-06T06:20:53.125Z,38.46
2023-05-06T06:23:21.381Z,38.84
2023-05-06T06:25:50.522Z,39.05
2023-05-06T06:28:22.760Z,38.99
2023-05-06T06:30:50.208Z,39.27
2023-05-06T06:33:17.313Z,39.15
2023-05-06T06:35:44.412Z,39.42
2023-05-06T06:38:11.479Z,39.25
2023-05-06T06:40:38.916Z,39.66
2023-05-06T06:43:06.082Z,39.14
2023-05-06T06:45:33.071Z,39.78
2023-05-06T06:48:00.384Z,39.95
2023-05-06T06:50:27.882Z,40.92
2023-05-06T06:52:54.849Z,41.45
2023-05-06T06:55:22.204Z,41.97
2023-05-06T06:57:49.868Z,42.18
2023-05-06T07:00:17.001Z,42.48
2023-05-06T07:02:43.858Z,42.69
2023-05-06T07:05:11.448Z,43.17
2023-05-06T07:07:38.761Z,43.83
2023-05-06T07:10:07.206Z,43.74
2023-05-06T07:12:34.295Z,44.11
2023-05-06T07:15:04.506Z,44.05
2023-05-06T07:17:31.552Z,44.50
2023-05-06T07:19:59.053Z,44.86
2023-05-06T07:22:27.731Z,44.87
2023-05-06T07:24:54.905Z,44.93
2023-05-06T07:27:21.896Z,44.96
2023-05-06T07:29:56.392Z,45.93
2023-05-06T07:32:23.536Z,46.52
2023-05-06T07:34:50.382Z,46.55
2023-05-06T07:37:17.228Z,47.79
2023-05-06T07:39:44.488Z,48.74
2023-05-06T07:42:12.769Z,49.14
2023-05-06T07:44:40.046Z,50.00
2023-05-06T07:47:07.936Z,51.04
2023-05-06T07:49:35.379Z,51.03
2023-05-06T07:52:03.739Z,51.90
2023-05-06T07:54:31.554Z,52.46
2023-05-06T07:56:58.993Z,52.92
2023-05-06T07:59:26.436Z,53.01
2023-05-06T08:01:53.674Z,53.56
2023-05-06T08:04:21.122Z,54.18
2023-05-06T08:06:48.176Z,55.05
2023-05-06T08:09:22.694Z,55.47
2023-05-06T08:11:56.015Z,55.30
2023-05-06T08:14:24.404Z,55.57
2023-05-06T08:16:52.032Z,56.32
2023-05-06T08:19:19.205Z,56.30
2023-05-06T08:21:46.563Z,56.28
2023-05-06T08:24:14.260Z,56.53
2023-05-06T08:26:41.836Z,56.10
2023-05-06T08:29:08.992Z,55.83
2023-05-06T08:31:36.187Z,56.35
2023-05-06T08:34:03.329Z,57.07
2023-05-06T08:36:30.682Z,56.90
2023-05-06T08:38:57.791Z,57.57
2023-05-06T08:41:26.279Z,57.40
2023-05-06T08:43:54.640Z,57.44
2023-05-06T08:46:22.707Z,57.33
2023-05-06T08:48:49.933Z,57.56
2023-05-06T08:51:18.430Z,58.38
2023-05-06T08:53:48.870Z,58.34
2023-05-06T08:56:17.017Z,58.43
2023-05-06T08:58:52.016Z,58.74
2023-05-06T09:03:26.358Z,60.72
2023-05-06T09:05:57.619Z,60.47
2023-05-06T09:08:27.635Z,59.91
2023-05-06T09:10:57.908Z,60.37
2023-05-06T09:13:26.268Z,61.29
2023-05-06T09:15:55.744Z,60.85
2023-05-06T09:18:26.495Z,60.94
2023-05-06T09:20:56.246Z,60.60
2023-05-06T09:23:25.343Z,61.57
2023-05-06T09:25:53.654Z,61.91
2023-05-06T09:28:22.672Z,61.61
2023-05-06T09:30:52.329Z,61.28
2023-05-06T09:33:22.156Z,60.87
2023-05-06T09:35:52.351Z,62.05
2023-05-06T09:38:22.864Z,62.10
2023-05-06T09:40:53.045Z,62.11
2023-05-06T09:43:25.364Z,62.27
2023-05-06T09:45:54.979Z,63.16
2023-05-06T09:48:31.119Z,63.95
2023-05-06T09:51:01.287Z,64.13
2023-05-06T09:53:31.700Z,63.62
2023-05-06T09:56:04.109Z,63.95
2023-05-06T09:58:36.747Z,64.47
2023-05-06T10:01:07.915Z,64.27
2023-05-06T10:03:36.711Z,64.53
2023-05-06T10:06:08.929Z,64.81
2023-05-06T10:08:42.410Z,64.83
2023-05-06T10:11:11.766Z,64.41
2023-05-06T10:13:42.467Z,64.99
2023-05-06T10:16:14.569Z,65.22
2023-05-06T10:18:46.262Z,64.97
2023-05-06T10:21:22.317Z,64.90
2023-05-06T10:24:12.059Z,65.19
2023-05-06T10:26:43.425Z,65.40
2023-05-06T10:29:14.948Z,65.72
2023-05-06T10:31:55.994Z,65.96
2023-05-06T10:34:26.867Z,65.75
2023-05-06T10:36:58.227Z,65.46
2023-05-06T10:39:27.162Z,65.39
2023-05-06T10:42:00.117Z,65.79
2023-05-06T10:45:10.763Z,65.56
2023-05-06T10:48:09.547Z,65.96
2023-05-06T10:50:38.456Z,66.29
2023-05-06T10:53:07.273Z,66.13
2023-05-06T10:55:40.418Z,65.89
2023-05-06T10:58:12.330Z,66.69
2023-05-06T11:00:41.745Z,66.37
2023-05-06T11:03:14.268Z,65.97
2023-05-06T11:05:55.015Z,66.51
2023-05-06T11:08:26.122Z,66.71
2023-05-06T11:10:55.183Z,66.29
2023-05-06T11:13:27.955Z,66.72
2023-05-06T11:15:59.118Z,66.68
2023-05-06T11:18:32.382Z,66.40
2023-05-06T11:21:01.411Z,66.48
2023-05-06T11:23:42.666Z,66.23
2023-05-06T11:26:14.361Z,66.61
2023-05-06T11:28:49.142Z,66.41
2023-05-06T11:31:18.709Z,67.12
2023-05-06T11:33:49.257Z,66.79
2023-05-06T11:36:21.565Z,66.73
2023-05-06T11:38:53.481Z,67.07
2023-05-06T11:41:23.756Z,67.05
2023-05-06T11:43:54.634Z,67.20
2023-05-06T11:46:25.234Z,67.10
2023-05-06T11:48:56.479Z,67.15
2023-05-06T11:51:25.748Z,67.23
2023-05-06T11:54:13.439Z,67.33
2023-05-06T11:57:08.341Z,67.24
2023-05-06T11:59:41.127Z,67.49
2023-05-06T12:02:15.286Z,67.49
2023-05-06T12:04:46.663Z,67.71
2023-05-06T12:07:16.437Z,67.82
2023-05-06T12:09:50.358Z,67.29
2023-05-06T12:12:23.494Z,67.35
2023-05-06T12:14:53.795Z,67.40
2023-05-06T12:17:22.809Z,67.05
2023-05-06T12:19:51.242Z,66.94
2023-05-06T12:22:21.886Z,66.66
2023-05-06T12:24:50.948Z,66.17
2023-05-06T12:27:39.893Z,66.60
2023-05-06T12:30:09.695Z,66.35
2023-05-06T12:32:59.212Z,66.27
2023-05-06T12:35:32.565Z,66.31
2023-05-06T12:38:15.804Z,66.45
2023-05-06T12:40:46.089Z,66.75
2023-05-06T12:43:15.027Z,66.88
2023-05-06T12:45:44.072Z,67.07
2023-05-06T12:48:16.938Z,66.96
2023-05-06T12:50:45.617Z,67.10
2023-05-06T12:53:13.790Z,66.87
2023-05-06T12:55:42.559Z,67.16
2023-05-06T12:58:23.658Z,67.29
2023-05-06T13:00:52.073Z,67.40
2023-05-06T13:03:20.632Z,67.42
2023-05-06T13:05:50.557Z,67.53
2023-05-06T13:08:19.470Z,67.61
2023-05-06T13:10:48.011Z,67.59
2023-05-06T13:13:17.015Z,67.46
2023-05-06T13:15:45.692Z,67.28
2023-05-06T13:18:14.096Z,67.35
2023-05-06T13:20:42.610Z,67.38
2023-05-06T13:23:10.983Z,67.46
2023-05-06T13:25:51.770Z,67.01
2023-05-06T13:28:30.560Z,67.50
2023-05-06T13:30:59.171Z,67.42
2023-05-06T13:33:27.599Z,66.99
2023-05-06T13:35:56.381Z,66.97
2023-05-06T13:38:24.951Z,67.16
2023-05-06T13:40:54.832Z,66.80
2023-05-06T13:43:26.080Z,66.57
2023-05-06T13:45:54.507Z,66.52
2023-05-06T13:48:22.933Z,66.59
2023-05-06T13:50:51.690Z,66.69
2023-05-06T13:53:20.801Z,66.77
2023-05-06T13:55:49.214Z,66.50
2023-05-06T13:58:17.729Z,66.54
2023-05-06T14:00:47.212Z,66.25
2023-05-06T14:03:15.449Z,66.18
2023-05-06T14:05:45.256Z,66.03
2023-05-06T14:08:14.630Z,65.92
2023-05-06T14:10:43.374Z,65.89
2023-05-06T14:13:12.302Z,65.94
2023-05-06T14:15:41.720Z,65.71
2023-05-06T14:18:10.411Z,65.50
2023-05-06T14:20:38.813Z,65.60
2023-05-06T14:23:07.191Z,65.72
2023-05-06T14:25:35.692Z,65.39
2023-05-06T14:28:04.273Z,64.97
2023-05-06T14:30:34.600Z,64.98
2023-05-06T14:33:04.402Z,65.46
2023-05-06T14:35:33.361Z,65.25
2023-05-06T14:38:02.382Z,65.18
2023-05-06T14:40:31.096Z,65.41
2023-05-06T14:42:59.722Z,65.83
2023-05-06T14:45:28.822Z,65.51
2023-05-06T14:47:59.961Z,65.74
2023-05-06T14:50:28.791Z,65.99
2023-05-06T14:52:57.647Z,65.90
2023-05-06T14:55:26.274Z,65.93
2023-05-06T14:57:54.869Z,65.33
2023-05-06T15:00:23.550Z,65.32
2023-05-06T15:02:52.069Z,66.04
2023-05-06T15:05:20.811Z,65.47
2023-05-06T15:07:49.828Z,65.79
2023-05-06T15:10:18.465Z,65.49
2023-05-06T15:12:46.687Z,66.28
2023-05-06T15:15:14.979Z,66.72
2023-05-06T15:17:43.401Z,66.11
2023-05-06T15:20:12.749Z,65.99
2023-05-06T15:22:41.076Z,65.56
2023-05-06T15:25:16.642Z,65.51
2023-05-06T15:27:51.317Z,65.76
2023-05-06T15:30:19.926Z,65.51
2023-05-06T15:32:49.354Z,65.70
2023-05-06T15:35:17.756Z,65.98
2023-05-06T15:37:46.465Z,66.37
2023-05-06T15:40:15.408Z,66.33
2023-05-06T15:42:44.029Z,66.27
2023-05-06T15:45:13.333Z,66.29
2023-05-06T15:47:42.177Z,66.40
2023-05-06T15:50:21.316Z,66.31
2023-05-06T15:53:02.603Z,66.46
2023-05-06T15:55:35.306Z,66.61
2023-05-06T15:58:12.079Z,67.05
2023-05-06T16:00:40.705Z,66.84
2023-05-06T16:03:12.039Z,67.09
2023-05-06T16:05:41.211Z,67.02
2023-05-06T16:08:09.788Z,67.27
2023-05-06T16:10:38.265Z,67.24
2023-05-06T16:13:06.991Z,67.17
2023-05-06T16:15:36.420Z,67.41
2023-05-06T16:18:05.271Z,67.55
2023-05-06T16:20:34.846Z,67.38
2023-05-06T16:23:03.442Z,67.53
2023-05-06T16:25:31.990Z,67.54
2023-05-06T16:28:00.770Z,67.33
2023-05-06T16:30:32.002Z,67.23
2023-05-06T16:33:00.523Z,67.38
2023-05-06T16:35:29.048Z,67.08
2023-05-06T16:37:59.708Z,66.90
2023-05-06T16:40:28.109Z,67.10
2023-05-06T16:42:56.488Z,67.36
2023-05-06T16:45:26.692Z,67.35
2023-05-06T16:47:55.424Z,67.23
2023-05-06T16:50:24.187Z,67.01
2023-05-06T16:52:54.509Z,67.16
2023-05-06T16:55:23.003Z,66.98
2023-05-06T16:57:51.450Z,66.87
2023-05-06T17:00:19.914Z,66.72
2023-05-06T17:02:48.526Z,66.88
2023-05-06T17:05:18.234Z,67.00
2023-05-06T17:07:48.454Z,66.56
2023-05-06T17:10:17.096Z,66.70
2023-05-06T17:12:45.661Z,67.13
2023-05-06T17:15:14.413Z,66.93
2023-05-06T17:17:42.804Z,66.53
2023-05-06T17:20:11.650Z,66.20
2023-05-06T17:22:40.995Z,66.54
2023-05-06T17:25:09.762Z,66.24
2023-05-06T17:27:38.235Z,66.21
2023-05-06T17:30:09.939Z,65.86
2023-05-06T17:32:39.104Z,65.70
2023-05-06T17:35:08.244Z,65.73
2023-05-06T17:37:36.770Z,65.61
2023-05-06T17:40:07.593Z,65.63
2023-05-06T17:42:36.565Z,65.47
2023-05-06T17:45:05.976Z,65.42
2023-05-06T17:47:36.383Z,65.35
2023-05-06T17:50:05.169Z,64.82
2023-05-06T17:52:33.662Z,64.96
2023-05-06T17:55:15.492Z,65.36
2023-05-06T17:57:45.721Z,65.59
2023-05-06T18:00:15.165Z,65.56
2023-05-06T18:02:44.094Z,65.20
2023-05-06T18:05:13.645Z,65.19
2023-05-06T18:07:42.525Z,65.80
2023-05-06T18:10:11.475Z,65.73
2023-05-06T18:12:39.943Z,65.44
2023-05-06T18:15:09.036Z,65.68
2023-05-06T18:17:38.154Z,65.53
2023-05-06T18:20:13.609Z,65.56
2023-05-06T18:22:43.221Z,65.94
2023-05-06T18:25:12.303Z,66.28
2023-05-06T18:27:40.928Z,66.12
2023-05-06T18:30:12.534Z,65.83
2023-05-06T18:32:41.049Z,65.64
2023-05-06T18:35:11.357Z,65.53
2023-05-06T18:37:40.281Z,65.27
2023-05-06T18:40:12.409Z,65.10
2023-05-06T18:42:40.651Z,65.05
2023-05-06T18:45:09.466Z,64.78
2023-05-06T18:47:38.415Z,64.94
2023-05-06T18:50:08.581Z,64.83
2023-05-06T18:52:38.071Z,64.72
2023-05-06T18:55:07.802Z,64.75
